Sterling, AK (99672)

5:05 PM AKDT on July 24, 2016 (GMT -0800)
Moose Range Meadows | | Change Station

Elev 100 ft 60.47 °N, 150.98 °W | Updated 8 minutes ago

Overcast
Overcast
63.5 °F
Feels Like 63.5 °F
N
3.6
Wind Variable Wind from WNW
Gusts 3.6 mph

Today
High -- | Low -- °F
--% Chance of Precip.
Yesterday
High -- | Low -- °F
Precip. -- in
Pressure 29.63 in
Visibility 10.0 miles
Clouds Few 4900 ft
Overcast 6500 ft
Dew Point 55 °F
Humidity 74%
Rainfall 0.04 in
Snow Depth Not available.
5:23 AM 10:54 PM
Waning Gibbous, 71% visible
METAR PAEN 250053Z 21010KT 10SM FEW049 OVC065 16/12 A2962 RMK AO2 SLP032 T01560122
Pressure 29.63 in
Visibility 10.0 miles
Clouds Few 4900 ft
Overcast 6500 ft
Dew Point 55 °F
Humidity 74%
Rainfall 0.04 in
Snow Depth Not available.
5:23 AM 10:54 PM
Waning Gibbous, 71% visible
METAR PAEN 250053Z 21010KT 10SM FEW049 OVC065 16/12 A2962 RMK AO2 SLP032 T01560122

10-Day Weather Forecast

Almanac

Astronomy

Jul. 24, 2016 Rise Set
Actual Time
Civil Twilight
Nautical Twilight
Astronomical Twilight
Moon
Length of Visible Light
Length of Day
Tomorrow will be .
, % of the Moon is Illuminated

Today's Extremes

State Highs State Lows

Community

WunderPhotos

Upload Photos

1,927,224 photos uploaded!

WunderBlog® & News

Nearby

Air Quality

  Air Quality AQ Index Pollutant
Not available.

Snow Depth

Station Depth Elevation

Earthquake Activity

City Distance Mag. Time & Date
Minimum magnitude displayed is 2.5.

Coastal Water Temperatures

Place Temperature

Stations

Nearby Weather Stations

Station Location Temp. Windchill Dew Point Humidity Wind Precip. Elev Updated Type
                   

Watches & Warnings

There are currently no watches in effect.